PWSweather.com
Personal Weather Stations
Station Observations
KTXPLANO70
Kemper Estates, Plano, TX

Kemper EstatesPlano, TX

Lat: 33.0674, Lon: -96.7659

Elevation: 737

Station Type: Davis Vantage Pro2

http://www.dallasdawg.com

Latest ConditionsUpdated 4:55:01 AM CDT Thursday, Jul 18, 2019
Currently Today's Max Today's Min Today's Average
Temperature 80.7°F27.1°C 85.7°F29.8°C 80.7°F27.1°C 83.2°F28.4°C
Dew Point 72.8°F22.7°C 75.7°F24.3°C 72.6°F22.6°C 74.6°F23.7°C
Winds 3.5 mph SSE5.6 kmh SSE 6.9 mph -11.1 kmh - - 4.6 mph 7.4 kmh
Wind Gusts 8.1 mph13.0 kmh 13.8 mph22.2 kmh - -
Humidity 77% 80% 70% 75%
Pressure 29.95 in1014.2 mb 29.95 in1014.2 mb 29.94 in1013.9 mb -
Hour Temp Dew Point Humidity Winds Wind Gusts Pressure Precip Precip Rate Daily Precip Total
04:55 AM 80.7°F27.1°C 72.8°F22.7°C 77% 3.5 mph SSE5.6 kmh SSE 8.1 mph13.0 kmh 29.95 in1014.2 mb - 0.00 in0.0 mm 0.00 in0.0 mm
04:50 AM 80.9°F27.2°C 72.6°F22.6°C 76% 3.5 mph SSE5.6 kmh SSE 5.8 mph9.3 kmh 29.95 in1014.2 mb - 0.00 in0.0 mm 0.00 in0.0 mm
04:45 AM 80.9°F27.2°C 72.6°F22.6°C 76% 3.5 mph SE5.6 kmh SE 3.5 mph5.6 kmh 29.95 in1014.2 mb - 0.00 in0.0 mm 0.00 in0.0 mm
04:40 AM 80.9°F27.2°C 73.0°F22.8°C 77% 5.8 mph SSE9.3 kmh SSE 10.4 mph16.7 kmh 29.95 in1014.2 mb - 0.00 in0.0 mm 0.00 in0.0 mm
04:35 AM 81.1°F27.3°C 73.2°F22.9°C 77% 2.3 mph SSE3.7 kmh SSE 8.1 mph13.0 kmh 29.94 in1013.9 mb - 0.00 in0.0 mm 0.00 in0.0 mm
04:30 AM 81.2°F27.3°C 73.3°F22.9°C 77% 5.8 mph S9.3 kmh S 9.2 mph14.8 kmh 29.94 in1013.9 mb - 0.00 in0.0 mm 0.00 in0.0 mm
04:25 AM 81.2°F27.3°C 73.7°F23.2°C 78% 4.6 mph SE7.4 kmh SE 8.1 mph13.0 kmh 29.94 in1013.9 mb - 0.00 in0.0 mm 0.00 in0.0 mm
04:10 AM 81.4°F27.4°C 74.2°F23.4°C 79% 3.5 mph SSE5.6 kmh SSE 6.9 mph11.1 kmh 29.94 in1013.9 mb - 0.00 in0.0 mm 0.00 in0.0 mm
03:30 AM 81.9°F27.7°C 74.8°F23.8°C 79% 4.6 mph SE7.4 kmh SE 5.8 mph9.3 kmh 29.94 in1013.9 mb - 0.00 in0.0 mm 0.00 in0.0 mm
03:20 AM 81.9°F27.7°C 75.1°F23.9°C 80% 4.6 mph SSE7.4 kmh SSE 6.9 mph11.1 kmh 29.95 in1014.2 mb - 0.00 in0.0 mm 0.00 in0.0 mm
03:10 AM 82.0°F27.8°C 74.8°F23.8°C 79% 3.5 mph SE5.6 kmh SE 4.6 mph7.4 kmh 29.95 in1014.2 mb - 0.00 in0.0 mm 0.00 in0.0 mm
02:55 AM 82.2°F27.9°C 75.0°F23.9°C 79% 3.5 mph SSE5.6 kmh SSE 5.8 mph9.3 kmh 29.95 in1014.2 mb - 0.00 in0.0 mm 0.00 in0.0 mm
02:25 AM 82.8°F28.2°C 75.2°F24.0°C 78% 4.6 mph SE7.4 kmh SE 9.2 mph14.8 kmh 29.95 in1014.2 mb - 0.00 in0.0 mm 0.00 in0.0 mm
02:20 AM 82.9°F28.3°C 75.3°F24.1°C 78% 2.3 mph SE3.7 kmh SE 3.5 mph5.6 kmh 29.95 in1014.2 mb - 0.00 in0.0 mm 0.00 in0.0 mm
01:40 AM 83.4°F28.6°C 75.5°F24.2°C 77% 4.6 mph SSE7.4 kmh SSE 11.5 mph18.5 kmh 29.95 in1014.2 mb - 0.00 in0.0 mm 0.00 in0.0 mm
01:25 AM 83.8°F28.8°C 75.5°F24.2°C 76% 3.5 mph SE5.6 kmh SE 8.1 mph13.0 kmh 29.95 in1014.2 mb - 0.00 in0.0 mm 0.00 in0.0 mm
01:15 AM 84.1°F28.9°C 75.7°F24.3°C 76% 5.8 mph SSE9.3 kmh SSE 8.1 mph13.0 kmh 29.95 in1014.2 mb - 0.00 in0.0 mm 0.00 in0.0 mm
01:10 AM 84.1°F28.9°C 75.3°F24.1°C 75% 5.8 mph SSE9.3 kmh SSE 8.1 mph13.0 kmh 29.95 in1014.2 mb - 0.00 in0.0 mm 0.00 in0.0 mm
01:00 AM 84.3°F29.1°C 75.5°F24.2°C 75% 5.8 mph SE9.3 kmh SE 10.4 mph16.7 kmh 29.95 in1014.2 mb - 0.00 in0.0 mm 0.00 in0.0 mm
12:55 AM 84.4°F29.1°C 75.2°F24.0°C 74% 5.8 mph SSE9.3 kmh SSE 11.5 mph18.5 kmh 29.95 in1014.2 mb - 0.00 in0.0 mm 0.00 in0.0 mm
12:50 AM 84.4°F29.1°C 75.2°F24.0°C 74% 5.8 mph SE9.3 kmh SE 10.4 mph16.7 kmh 29.95 in1014.2 mb - 0.00 in0.0 mm 0.00 in0.0 mm
12:45 AM 84.6°F29.2°C 75.4°F24.1°C 74% 6.9 mph SE11.1 kmh SE 10.4 mph16.7 kmh 29.95 in1014.2 mb - 0.00 in0.0 mm 0.00 in0.0 mm
12:40 AM 84.8°F29.3°C 75.2°F24.0°C 73% 4.6 mph SSE7.4 kmh SSE 9.2 mph14.8 kmh 29.95 in1014.2 mb - 0.00 in0.0 mm 0.00 in0.0 mm
12:35 AM 84.9°F29.4°C 75.3°F24.1°C 73% 3.5 mph SE5.6 kmh SE 6.9 mph11.1 kmh 29.95 in1014.2 mb - 0.00 in0.0 mm 0.00 in0.0 mm
12:30 AM 85.0°F29.4°C 75.0°F23.9°C 72% 4.6 mph SE7.4 kmh SE 8.1 mph13.0 kmh 29.94 in1013.9 mb - 0.00 in0.0 mm 0.00 in0.0 mm
12:25 AM 85.2°F29.6°C 75.2°F24.0°C 72% 4.6 mph SSE7.4 kmh SSE 11.5 mph18.5 kmh 29.94 in1013.9 mb - 0.00 in0.0 mm 0.00 in0.0 mm
12:20 AM 85.4°F29.7°C 74.9°F23.8°C 71% 5.8 mph SE9.3 kmh SE 11.5 mph18.5 kmh 29.95 in1014.2 mb - 0.00 in0.0 mm 0.00 in0.0 mm
12:15 AM 85.4°F29.7°C 74.9°F23.8°C 71% 5.8 mph SSE9.3 kmh SSE 8.1 mph13.0 kmh 29.94 in1013.9 mb - 0.00 in0.0 mm 0.00 in0.0 mm
12:10 AM 85.6°F29.8°C 75.1°F23.9°C 71% 6.9 mph SE11.1 kmh SE 13.8 mph22.2 kmh 29.94 in1013.9 mb - 0.00 in0.0 mm 0.00 in0.0 mm
12:00 AM 85.7°F29.8°C 74.8°F23.8°C 70% 3.5 mph SE5.6 kmh SE 8.1 mph13.0 kmh 29.94 in1013.9 mb - 0.00 in0.0 mm 0.00 in0.0 mm